Airfield :
LOGIN :

Register | Disclaimer

   EN    FR    IT 

 










Legend :    VFR   Marginal VFR   IFR   Intensive IFR   Very Intensive IFR
Visi :
Ceiling :
>= 8 km
>= 3000ft
5 to 8 km
1000 to 3000 ft
1500m to 5 km
500 to 1000 ft
800 to 1500m
200 to 500 ft
< 800m
< 200 ft
Symbols :   Thunderstorms  Fog  Heavy snow  Heavy precipitations  Wind > 20 kt
SIGMETs :     Misc.  Thunderstorms  Icing  Turbulence  Mountain Waves  Volcanic Ashes







- Airport Elevation : 53 ft
- IATA code : HAM


EDDH - Hamburg

CURRENT METAR :
  • 261220Z 30004KT 180V340 9999 FEW030 22/14 Q1022 NOSIG

EXPIRED METARs :
  • 261150Z 32006KT 200V010 9999 FEW025 21/14 Q1022 NOSIG
  • 261120Z 34006KT 310V060 9999 FEW025 20/14 Q1022 NOSIG
  • 261050Z 30007KT 240V320 9999 FEW023 19/14 Q1022 NOSIG
  • 261020Z 30006KT 250V330 9999 FEW021 19/14 Q1022 NOSIG
  • 260950Z 32008KT 280V030 9999 FEW019 18/14 Q1023 NOSIG

TAF TAF EDDH
Valid from the 26 at 12:00 until the 27 at 18:00 UTC


261100Z 2612/2718 33008KT CAVOK
TEMPO 2612/2618 VRB03KT
BECMG 2618/2620 11004KT
PROB30
TEMPO 2701/2704 2500 BCFG
BECMG 2706/2708 15009KT
No reported NOTAMs for that airfield.



MET'MAP, your aeronautical weather chart ! - Copyright ORBIFLY December 2007 - Disclaimer

ORBIFLY MET'MAP TEAM :

Programming & Development : Alexandra Zaïnal
Concept & Development : Baudouin d'Aumeries
Co-Development & Prog : Marc-Olivier Méhu
Technical & hardware support : Manuel Goepfert

Contact : metmap@orbifly.com




SOURCES & CREDITS :

   NOAA